createdAt,value
2023-05-05T00:00:59.618Z,0.78
2023-05-05T00:01:59.594Z,0.78
2023-05-05T00:02:59.761Z,0.78
2023-05-05T00:03:59.645Z,0.77
2023-05-05T00:04:59.567Z,0.77
2023-05-05T00:05:59.537Z,0.78
2023-05-05T00:06:59.541Z,0.76
2023-05-05T00:07:59.518Z,0.76
2023-05-05T00:08:59.549Z,0.76
2023-05-05T00:09:59.541Z,0.79
2023-05-05T00:10:59.537Z,0.77
2023-05-05T00:11:59.521Z,0.77
2023-05-05T00:12:59.571Z,0.77
2023-05-05T00:13:59.478Z,0.75
2023-05-05T00:14:59.476Z,0.75
2023-05-05T00:15:59.476Z,0.75
2023-05-05T00:16:59.491Z,0.76
2023-05-05T00:17:59.526Z,0.77
2023-05-05T00:18:59.479Z,0.76
2023-05-05T00:19:59.470Z,0.76
2023-05-05T00:20:59.462Z,0.75
2023-05-05T00:21:59.430Z,0.75
2023-05-05T00:22:59.434Z,0.75
2023-05-05T00:23:59.429Z,0.74
2023-05-05T00:24:59.426Z,0.75
2023-05-05T00:25:59.444Z,0.75
2023-05-05T00:26:59.412Z,0.75
2023-05-05T00:27:59.379Z,0.74
2023-05-05T00:28:59.385Z,0.74
2023-05-05T00:29:59.384Z,0.76
2023-05-05T00:30:59.530Z,0.76
2023-05-05T00:31:59.389Z,0.75
2023-05-05T00:32:59.370Z,0.74
2023-05-05T00:33:59.383Z,0.74
2023-05-05T00:34:59.362Z,0.75
2023-05-05T00:35:59.332Z,0.74
2023-05-05T00:36:59.357Z,0.74
2023-05-05T00:37:59.373Z,0.74
2023-05-05T00:38:59.411Z,0.73
2023-05-05T00:39:59.415Z,0.74
2023-05-05T00:40:59.444Z,0.73
2023-05-05T00:41:59.515Z,0.75
2023-05-05T00:42:59.553Z,0.75
2023-05-05T00:43:59.508Z,0.74
2023-05-05T00:44:59.584Z,0.74
2023-05-05T00:45:59.676Z,0.74
2023-05-05T00:46:59.616Z,0.72
2023-05-05T00:47:59.701Z,0.74
2023-05-05T00:48:59.698Z,0.73
2023-05-05T00:49:59.700Z,0.74
2023-05-05T00:50:59.742Z,0.74
2023-05-05T00:51:59.751Z,0.73
2023-05-05T00:52:59.779Z,0.73
2023-05-05T00:53:59.835Z,0.73
2023-05-05T00:54:59.876Z,0.72
2023-05-05T00:55:59.917Z,0.72
2023-05-05T00:56:59.938Z,0.72
2023-05-05T00:57:59.973Z,0.71
2023-05-05T00:58:59.963Z,0.72
2023-05-05T00:59:59.994Z,0.72
2023-05-05T01:01:00.002Z,0.72
2023-05-05T01:02:00.053Z,0.72
2023-05-05T01:03:00.154Z,0.72
2023-05-05T01:04:00.183Z,0.72
2023-05-05T01:05:00.145Z,0.71
2023-05-05T01:06:00.144Z,0.71
2023-05-05T01:07:00.156Z,0.70
2023-05-05T01:08:00.188Z,0.70
2023-05-05T01:09:00.190Z,0.71
2023-05-05T01:10:15.153Z,0.71
2023-05-05T01:11:01.219Z,0.72
2023-05-05T01:12:00.188Z,0.72
2023-05-05T01:13:00.308Z,0.72
2023-05-05T01:14:00.183Z,0.71
2023-05-05T01:15:00.165Z,0.72
2023-05-05T01:16:00.182Z,0.72
2023-05-05T01:17:00.209Z,0.71
2023-05-05T01:18:00.292Z,0.72
2023-05-05T01:19:00.155Z,0.72
2023-05-05T01:20:00.204Z,0.72
2023-05-05T01:21:00.130Z,0.70
2023-05-05T01:22:00.171Z,0.71
2023-05-05T01:23:00.184Z,0.70
2023-05-05T01:24:00.216Z,0.69
2023-05-05T01:25:00.240Z,0.70
2023-05-05T01:26:00.264Z,0.70
2023-05-05T01:27:00.234Z,0.71
2023-05-05T01:28:00.298Z,0.70
2023-05-05T01:29:00.337Z,0.71
2023-05-05T01:30:00.368Z,0.71
2023-05-05T01:31:00.368Z,0.71
2023-05-05T01:32:00.548Z,0.71
2023-05-05T01:33:00.499Z,0.70
2023-05-05T01:34:00.472Z,0.70
2023-05-05T01:35:00.494Z,0.69
2023-05-05T01:36:00.584Z,0.70
2023-05-05T01:37:00.547Z,0.69
2023-05-05T01:38:00.591Z,0.70
2023-05-05T01:39:00.643Z,0.70
2023-05-05T01:40:00.646Z,0.69
2023-05-05T01:41:00.675Z,0.70
2023-05-05T01:42:00.690Z,0.69
2023-05-05T01:43:00.744Z,0.69
2023-05-05T01:44:00.737Z,0.69
2023-05-05T01:45:00.759Z,0.70
2023-05-05T01:46:00.831Z,0.69
2023-05-05T01:47:00.800Z,0.69
2023-05-05T01:48:00.934Z,0.69
2023-05-05T01:49:00.874Z,0.70
2023-05-05T01:50:00.884Z,0.70
2023-05-05T01:51:00.879Z,0.69
2023-05-05T01:52:00.906Z,0.68
2023-05-05T01:53:00.921Z,0.69
2023-05-05T01:54:01.733Z,0.69
2023-05-05T01:55:01.016Z,0.67
2023-05-05T01:56:01.018Z,0.67
2023-05-05T01:57:01.078Z,0.71
2023-05-05T01:58:01.052Z,0.69
2023-05-05T01:59:01.095Z,0.69
2023-05-05T02:00:01.138Z,0.68
2023-05-05T02:01:01.145Z,0.69
2023-05-05T02:02:01.265Z,0.68
2023-05-05T02:03:01.274Z,0.67
2023-05-05T02:04:01.221Z,0.68
2023-05-05T02:05:01.245Z,0.68
2023-05-05T02:06:01.276Z,0.67
2023-05-05T02:07:01.308Z,0.68
2023-05-05T02:08:01.342Z,0.70
2023-05-05T02:09:01.355Z,0.69
2023-05-05T02:10:01.373Z,0.68
2023-05-05T02:11:01.412Z,0.68
2023-05-05T02:12:01.447Z,0.67
2023-05-05T02:13:01.550Z,0.68
2023-05-05T02:14:01.555Z,0.67
2023-05-05T02:15:01.500Z,0.67
2023-05-05T02:16:01.589Z,0.67
2023-05-05T02:17:01.579Z,0.68
2023-05-05T02:18:01.694Z,0.67
2023-05-05T02:19:01.619Z,0.68
2023-05-05T02:20:01.647Z,0.67
2023-05-05T02:21:01.669Z,0.65
2023-05-05T02:22:01.674Z,0.66
2023-05-05T02:23:01.678Z,0.67
2023-05-05T02:24:01.736Z,0.68
2023-05-05T02:25:01.736Z,0.66
2023-05-05T02:26:01.797Z,0.67
2023-05-05T02:27:01.817Z,0.66
2023-05-05T02:28:01.849Z,0.67
2023-05-05T02:29:01.900Z,0.67
2023-05-05T02:30:01.905Z,0.66
2023-05-05T02:31:01.975Z,0.67
2023-05-05T02:32:01.983Z,0.66
2023-05-05T02:33:02.072Z,0.67
2023-05-05T02:34:02.026Z,0.68
2023-05-05T02:35:02.026Z,0.66
2023-05-05T02:36:02.065Z,0.66
2023-05-05T02:37:02.120Z,0.66
2023-05-05T02:38:02.118Z,0.66
2023-05-05T02:39:02.181Z,0.66
2023-05-05T02:40:02.223Z,0.66
2023-05-05T02:41:02.221Z,0.66
2023-05-05T02:42:02.257Z,0.67
2023-05-05T02:43:02.291Z,0.66
2023-05-05T02:44:02.345Z,0.65
2023-05-05T02:45:02.350Z,0.66
2023-05-05T02:46:02.408Z,0.65
2023-05-05T02:47:02.375Z,0.66
2023-05-05T02:48:02.429Z,0.67
2023-05-05T02:49:02.353Z,0.66
2023-05-05T02:50:02.384Z,0.64
2023-05-05T02:51:02.463Z,0.65
2023-05-05T02:52:02.470Z,0.65
2023-05-05T02:53:02.447Z,0.66
2023-05-05T02:54:02.446Z,0.66
2023-05-05T02:55:02.473Z,0.66
2023-05-05T02:56:02.487Z,0.66
2023-05-05T02:57:02.547Z,0.66
2023-05-05T02:58:02.547Z,0.65
2023-05-05T02:59:02.552Z,0.67
2023-05-05T03:00:02.576Z,0.66
2023-05-05T03:01:02.611Z,0.66
2023-05-05T03:02:02.598Z,0.66
2023-05-05T03:03:02.730Z,0.65
2023-05-05T03:04:02.686Z,0.65
2023-05-05T03:05:02.739Z,0.66
2023-05-05T03:06:02.742Z,0.63
2023-05-05T03:07:02.754Z,0.65
2023-05-05T03:08:02.795Z,0.65
2023-05-05T03:09:02.815Z,0.65
2023-05-05T03:10:02.806Z,0.66
2023-05-05T03:11:02.800Z,0.67
2023-05-05T03:12:02.764Z,0.65
2023-05-05T03:13:02.810Z,0.66
2023-05-05T03:14:02.837Z,0.64
2023-05-05T03:15:02.790Z,0.66
2023-05-05T03:16:02.852Z,0.64
2023-05-05T03:17:02.835Z,0.65
2023-05-05T03:18:02.833Z,0.65
2023-05-05T03:19:02.798Z,0.65
2023-05-05T03:20:03.930Z,0.66
2023-05-05T03:21:02.821Z,0.65
2023-05-05T03:22:02.850Z,0.65
2023-05-05T03:23:02.865Z,0.64
2023-05-05T03:24:02.900Z,0.64
2023-05-05T03:25:02.891Z,0.65
2023-05-05T03:26:02.911Z,0.64
2023-05-05T03:27:03.023Z,0.65
2023-05-05T03:28:02.962Z,0.66
2023-05-05T03:29:02.987Z,0.66
2023-05-05T03:30:02.997Z,0.64
2023-05-05T03:31:03.021Z,0.64
2023-05-05T03:32:03.112Z,0.66
2023-05-05T03:33:03.127Z,0.65
2023-05-05T03:34:03.095Z,0.63
2023-05-05T03:35:03.053Z,0.64
2023-05-05T03:36:03.125Z,0.63
2023-05-05T03:37:03.091Z,0.64
2023-05-05T03:38:03.102Z,0.64
2023-05-05T03:39:03.101Z,0.64
2023-05-05T03:40:03.122Z,0.64
2023-05-05T03:41:03.109Z,0.65
2023-05-05T03:42:03.130Z,0.64
2023-05-05T03:43:03.123Z,0.63
2023-05-05T03:44:03.133Z,0.64
2023-05-05T03:45:03.144Z,0.64
2023-05-05T03:46:03.146Z,0.64
2023-05-05T03:47:03.118Z,0.65
2023-05-05T03:48:03.143Z,0.64
2023-05-05T03:49:03.129Z,0.64
2023-05-05T03:50:03.159Z,0.64
2023-05-05T03:51:03.163Z,0.63
2023-05-05T03:52:03.153Z,0.64
2023-05-05T03:53:03.159Z,0.65
2023-05-05T03:54:03.166Z,0.64
2023-05-05T03:55:03.209Z,0.63
2023-05-05T03:56:03.212Z,0.64
2023-05-05T03:57:03.199Z,0.63
2023-05-05T03:58:03.227Z,0.64
2023-05-05T03:59:03.220Z,0.64
2023-05-05T04:00:03.223Z,0.64
2023-05-05T04:01:03.214Z,0.63
2023-05-05T04:02:03.241Z,0.63
2023-05-05T04:03:03.246Z,0.64
2023-05-05T04:04:03.244Z,0.63
2023-05-05T04:05:03.201Z,0.64
2023-05-05T04:06:03.212Z,0.63
2023-05-05T04:07:03.208Z,0.64
2023-05-05T04:08:03.239Z,0.64
2023-05-05T04:09:03.207Z,0.63
2023-05-05T04:10:03.240Z,0.63
2023-05-05T04:11:03.243Z,0.64
2023-05-05T04:12:03.250Z,0.63
2023-05-05T04:13:03.234Z,0.62
2023-05-05T04:14:03.205Z,0.63
2023-05-05T04:15:03.197Z,0.63
2023-05-05T04:16:03.285Z,0.63
2023-05-05T04:17:03.222Z,0.65
2023-05-05T04:18:03.240Z,0.63
2023-05-05T04:19:03.249Z,0.64
2023-05-05T04:20:03.259Z,0.63
2023-05-05T04:21:03.254Z,0.64
2023-05-05T04:22:03.262Z,0.63
2023-05-05T04:23:03.261Z,0.64
2023-05-05T04:24:03.231Z,0.62
2023-05-05T04:25:03.278Z,0.63
2023-05-05T04:26:03.269Z,0.63
2023-05-05T04:27:03.213Z,0.63
2023-05-05T04:28:03.224Z,0.62
2023-05-05T04:29:03.258Z,0.62
2023-05-05T04:30:03.269Z,0.63
2023-05-05T04:31:03.327Z,0.63
2023-05-05T04:32:03.257Z,0.63
2023-05-05T04:33:03.352Z,0.62
2023-05-05T04:34:03.221Z,0.63
2023-05-05T04:35:03.260Z,0.62
2023-05-05T04:36:03.262Z,0.62
2023-05-05T04:37:03.211Z,0.63
2023-05-05T04:38:03.244Z,0.62
2023-05-05T04:39:03.272Z,0.63
2023-05-05T04:40:03.220Z,0.62
2023-05-05T04:41:03.236Z,0.64
2023-05-05T04:42:03.246Z,0.63
2023-05-05T04:43:03.226Z,0.63
2023-05-05T04:44:03.235Z,0.63
2023-05-05T04:45:03.245Z,0.63
2023-05-05T04:46:03.257Z,0.63
2023-05-05T04:47:03.216Z,0.63
2023-05-05T04:48:03.268Z,0.63
2023-05-05T04:49:03.234Z,0.62
2023-05-05T04:50:03.233Z,0.63
2023-05-05T04:51:03.215Z,0.64
2023-05-05T04:52:03.224Z,0.65
2023-05-05T04:53:03.184Z,0.66
2023-05-05T04:54:03.199Z,0.64
2023-05-05T04:55:03.182Z,0.66
2023-05-05T04:56:03.231Z,0.65
2023-05-05T04:57:03.198Z,0.65
2023-05-05T04:58:03.194Z,0.65
2023-05-05T04:59:03.212Z,0.66
2023-05-05T05:00:03.183Z,0.66
2023-05-05T05:01:03.191Z,0.67
2023-05-05T05:02:03.204Z,0.66
2023-05-05T05:03:03.338Z,0.68
2023-05-05T05:04:03.336Z,0.67
2023-05-05T05:05:03.178Z,0.67
2023-05-05T05:06:03.242Z,0.67
2023-05-05T05:07:03.218Z,0.66
2023-05-05T05:08:03.222Z,0.68
2023-05-05T05:09:03.216Z,0.68
2023-05-05T05:10:03.198Z,0.69
2023-05-05T05:11:03.237Z,0.69
2023-05-05T05:12:03.170Z,0.68
2023-05-05T05:13:03.232Z,0.70
2023-05-05T05:14:03.174Z,0.69
2023-05-05T05:15:03.193Z,0.68
2023-05-05T05:16:03.243Z,0.68
2023-05-05T05:17:03.214Z,0.69
2023-05-05T05:18:03.213Z,0.69
2023-05-05T05:19:03.170Z,0.69
2023-05-05T05:20:03.203Z,0.70
2023-05-05T05:21:03.231Z,0.67
2023-05-05T05:22:03.190Z,0.70
2023-05-05T05:23:03.774Z,0.68
2023-05-05T05:24:03.225Z,0.69
2023-05-05T05:25:03.243Z,0.68
2023-05-05T05:26:03.229Z,0.68
2023-05-05T05:27:03.193Z,0.69
2023-05-05T05:28:10.252Z,0.69
2023-05-05T05:29:04.213Z,0.70
2023-05-05T05:30:03.182Z,0.70
2023-05-05T05:31:03.205Z,0.70
2023-05-05T05:32:03.225Z,0.69
2023-05-05T05:33:03.157Z,0.68
2023-05-05T05:34:03.131Z,0.69
2023-05-05T05:35:03.136Z,0.70
2023-05-05T05:36:03.170Z,0.70
2023-05-05T05:37:03.139Z,0.71
2023-05-05T05:38:03.137Z,0.72
2023-05-05T05:39:03.098Z,0.73
2023-05-05T05:40:03.105Z,0.71
2023-05-05T05:41:03.320Z,0.72
2023-05-05T05:42:03.097Z,0.76
2023-05-05T05:43:03.085Z,0.79
2023-05-05T05:44:03.089Z,0.80
2023-05-05T05:45:03.090Z,0.90
2023-05-05T05:46:03.066Z,0.97
2023-05-05T05:47:03.080Z,1.02
2023-05-05T05:48:03.088Z,1.08
2023-05-05T05:49:03.105Z,1.16
2023-05-05T05:50:03.154Z,1.15
2023-05-05T05:51:03.188Z,1.21
2023-05-05T05:52:03.290Z,1.30
2023-05-05T05:53:03.348Z,1.39
2023-05-05T05:54:03.382Z,1.45
2023-05-05T05:55:03.433Z,1.52
2023-05-05T05:56:03.479Z,1.75
2023-05-05T05:57:03.529Z,1.75
2023-05-05T05:58:03.640Z,1.90
2023-05-05T05:59:03.698Z,2.05
2023-05-05T06:00:03.690Z,2.09
2023-05-05T06:01:03.770Z,2.14
2023-05-05T06:02:03.837Z,2.21
2023-05-05T06:03:03.976Z,2.29
2023-05-05T06:04:03.924Z,2.42
2023-05-05T06:05:03.893Z,2.59
2023-05-05T06:06:03.951Z,2.56
2023-05-05T06:07:04.293Z,2.64
2023-05-05T06:08:03.962Z,2.72
2023-05-05T06:09:03.996Z,2.91
2023-05-05T06:10:14.987Z,3.04
2023-05-05T06:11:05.000Z,3.05
2023-05-05T06:12:04.317Z,3.07
2023-05-05T06:13:04.042Z,3.16
2023-05-05T06:14:04.004Z,3.30
2023-05-05T06:15:03.971Z,3.52
2023-05-05T06:16:04.021Z,3.63
2023-05-05T06:17:03.966Z,3.77
2023-05-05T06:18:04.032Z,3.89
2023-05-05T06:19:03.988Z,4.04
2023-05-05T06:20:03.948Z,4.15
2023-05-05T06:21:04.003Z,4.23
2023-05-05T06:22:03.911Z,4.43
2023-05-05T06:23:03.927Z,4.52
2023-05-05T06:24:03.932Z,4.66
2023-05-05T06:25:03.927Z,4.85
2023-05-05T06:26:03.898Z,5.00
2023-05-05T06:27:03.893Z,5.14
2023-05-05T06:28:03.884Z,5.27
2023-05-05T06:29:03.902Z,5.43
2023-05-05T06:30:03.872Z,5.61
2023-05-05T06:31:03.926Z,5.69
2023-05-05T06:32:03.848Z,5.95
2023-05-05T06:33:03.874Z,5.95
2023-05-05T06:34:03.830Z,6.15
2023-05-05T06:35:03.850Z,6.33
2023-05-05T06:36:03.841Z,6.34
2023-05-05T06:37:04.309Z,6.38
2023-05-05T06:38:03.828Z,6.35
2023-05-05T06:39:03.820Z,6.49
2023-05-05T06:40:03.823Z,6.62
2023-05-05T06:41:03.810Z,6.88
2023-05-05T06:42:03.814Z,6.77
2023-05-05T06:43:03.837Z,6.91
2023-05-05T06:44:03.876Z,7.15
2023-05-05T06:45:03.907Z,7.27
2023-05-05T06:46:03.949Z,7.42
2023-05-05T06:47:04.411Z,7.59
2023-05-05T06:48:04.141Z,7.80
2023-05-05T06:49:04.113Z,7.84
2023-05-05T06:50:04.180Z,8.15
2023-05-05T06:51:04.221Z,6.32
2023-05-05T06:52:04.234Z,6.32
2023-05-05T06:53:04.240Z,6.30
2023-05-05T06:54:04.236Z,6.27
2023-05-05T06:55:04.235Z,6.84
2023-05-05T06:56:04.251Z,6.62
2023-05-05T06:57:04.280Z,6.68
2023-05-05T06:58:04.250Z,6.31
2023-05-05T06:59:04.369Z,6.25
2023-05-05T07:00:04.249Z,6.27
2023-05-05T07:01:04.285Z,5.61
2023-05-05T07:02:04.320Z,5.74
2023-05-05T07:03:04.276Z,6.10
2023-05-05T07:04:04.342Z,5.99
2023-05-05T07:05:04.297Z,5.81
2023-05-05T07:06:04.263Z,5.69
2023-05-05T07:07:04.290Z,5.62
2023-05-05T07:08:04.271Z,5.44
2023-05-05T07:09:04.274Z,5.42
2023-05-05T07:10:04.252Z,5.42
2023-05-05T07:11:04.251Z,5.41
2023-05-05T07:12:04.252Z,4.88
2023-05-05T07:13:04.350Z,5.15
2023-05-05T07:14:04.282Z,5.00
2023-05-05T07:15:15.502Z,4.22
2023-05-05T07:16:05.303Z,3.80
2023-05-05T07:17:04.263Z,3.92
2023-05-05T07:18:04.273Z,4.18
2023-05-05T07:19:04.239Z,4.32
2023-05-05T07:20:04.252Z,4.56
2023-05-05T07:21:04.451Z,4.62
2023-05-05T07:22:04.234Z,4.56
2023-05-05T07:23:04.225Z,3.30
2023-05-05T07:24:04.237Z,3.15
2023-05-05T07:25:04.225Z,3.41
2023-05-05T07:26:04.208Z,3.51
2023-05-05T07:27:04.200Z,2.70
2023-05-05T07:28:04.199Z,3.31
2023-05-05T07:29:04.184Z,3.45
2023-05-05T07:30:07.138Z,2.85
2023-05-05T07:31:05.250Z,2.86
2023-05-05T07:32:04.240Z,2.95
2023-05-05T07:33:04.215Z,3.07
2023-05-05T07:34:04.156Z,3.19
2023-05-05T07:35:04.162Z,3.20
2023-05-05T07:36:04.154Z,3.24
2023-05-05T07:37:04.143Z,3.07
2023-05-05T07:38:04.137Z,2.88
2023-05-05T07:39:04.129Z,2.79
2023-05-05T07:40:04.088Z,2.85
2023-05-05T07:41:04.084Z,2.19
2023-05-05T07:42:04.337Z,2.52
2023-05-05T07:43:04.075Z,2.83
2023-05-05T07:44:04.078Z,2.45
2023-05-05T07:45:04.075Z,2.50
2023-05-05T07:46:04.179Z,2.28
2023-05-05T07:47:04.467Z,1.80
2023-05-05T07:48:04.093Z,1.97
2023-05-05T07:49:04.041Z,2.15
2023-05-05T07:50:04.036Z,2.23
2023-05-05T07:51:04.008Z,2.20
2023-05-05T07:52:04.026Z,2.34
2023-05-05T07:53:13.554Z,2.51
2023-05-05T07:54:05.014Z,2.52
2023-05-05T07:55:04.029Z,2.55
2023-05-05T07:56:04.010Z,2.64
2023-05-05T07:57:04.035Z,2.79
2023-05-05T07:58:03.994Z,3.17
2023-05-05T07:59:03.993Z,3.22
2023-05-05T08:00:03.983Z,3.12
2023-05-05T08:01:03.974Z,3.18
2023-05-05T08:02:03.951Z,3.28
2023-05-05T08:03:04.281Z,3.32
2023-05-05T08:04:04.212Z,3.31
2023-05-05T08:05:04.125Z,3.35
2023-05-05T08:06:04.176Z,3.33
2023-05-05T08:07:04.217Z,3.44
2023-05-05T08:08:04.281Z,3.73
2023-05-05T08:09:04.303Z,3.65
2023-05-05T08:10:04.362Z,3.72
2023-05-05T08:11:04.418Z,3.68
2023-05-05T08:12:04.457Z,3.68
2023-05-05T08:13:04.517Z,3.64
2023-05-05T08:14:04.544Z,3.64
2023-05-05T08:15:04.612Z,3.38
2023-05-05T08:16:04.629Z,3.74
2023-05-05T08:17:04.664Z,3.79
2023-05-05T08:18:04.696Z,3.80
2023-05-05T08:19:09.756Z,3.80
2023-05-05T08:20:05.720Z,3.81
2023-05-05T08:21:04.704Z,3.81
2023-05-05T08:22:04.706Z,3.83
2023-05-05T08:23:04.697Z,3.75
2023-05-05T08:24:04.680Z,3.78
2023-05-05T08:25:04.725Z,3.90
2023-05-05T08:26:04.660Z,3.74
2023-05-05T08:27:04.685Z,3.84
2023-05-05T08:28:04.660Z,3.71
2023-05-05T08:29:04.628Z,3.69
2023-05-05T08:30:04.642Z,3.86
2023-05-05T08:31:04.675Z,3.81
2023-05-05T08:32:04.652Z,3.95
2023-05-05T08:33:04.671Z,4.08
2023-05-05T08:34:04.676Z,4.10
2023-05-05T08:35:04.754Z,4.40
2023-05-05T08:36:04.681Z,4.35
2023-05-05T08:37:04.727Z,4.32
2023-05-05T08:38:04.729Z,3.64
2023-05-05T08:39:04.776Z,3.05
2023-05-05T08:40:04.816Z,3.09
2023-05-05T08:41:04.857Z,2.94
2023-05-05T08:42:05.385Z,3.12
2023-05-05T08:43:04.919Z,3.10
2023-05-05T08:44:04.948Z,3.19
2023-05-05T08:45:05.082Z,2.79
2023-05-05T08:46:05.061Z,1.82
2023-05-05T08:47:05.142Z,1.61
2023-05-05T08:48:05.333Z,1.32
2023-05-05T08:49:05.197Z,0.67
2023-05-05T08:50:05.225Z,0.50
2023-05-05T08:51:05.745Z,0.47
2023-05-05T08:52:05.362Z,0.44
2023-05-05T08:53:05.494Z,0.61
2023-05-05T08:54:05.382Z,0.74
2023-05-05T08:55:05.457Z,0.96
2023-05-05T08:56:05.379Z,1.22
2023-05-05T08:57:05.403Z,1.39
2023-05-05T08:58:05.409Z,1.50
2023-05-05T08:59:05.435Z,1.57
2023-05-05T09:00:05.491Z,1.62
2023-05-05T09:01:05.589Z,1.63
2023-05-05T09:02:05.902Z,1.75
2023-05-05T09:03:05.722Z,1.83
2023-05-05T09:04:05.748Z,1.87
2023-05-05T09:05:05.818Z,1.96
2023-05-05T09:06:05.819Z,2.06
2023-05-05T09:07:05.935Z,2.13
2023-05-05T09:08:06.388Z,2.19
2023-05-05T09:09:05.972Z,2.23
2023-05-05T09:10:06.035Z,2.25
2023-05-05T09:11:06.018Z,2.30
2023-05-05T09:12:06.040Z,2.36
2023-05-05T09:13:06.205Z,2.37
2023-05-05T09:14:06.112Z,2.42
2023-05-05T09:15:06.290Z,2.45
2023-05-05T09:16:06.188Z,2.59
2023-05-05T09:17:06.238Z,2.63
2023-05-05T09:18:06.288Z,2.62
2023-05-05T09:19:06.272Z,2.72
2023-05-05T09:20:06.260Z,2.92
2023-05-05T09:21:06.285Z,2.97
2023-05-05T09:22:06.329Z,3.01
2023-05-05T09:23:06.460Z,3.05
2023-05-05T09:24:08.691Z,3.00
2023-05-05T09:25:06.793Z,3.03
2023-05-05T09:26:06.545Z,3.15
2023-05-05T09:27:06.578Z,3.04
2023-05-05T09:28:06.899Z,2.72
2023-05-05T09:29:06.593Z,3.03
2023-05-05T09:30:06.610Z,3.02
2023-05-05T09:31:06.735Z,3.16
2023-05-05T09:32:06.651Z,3.22
2023-05-05T09:33:06.673Z,3.32
2023-05-05T09:34:06.683Z,3.60
2023-05-05T09:35:06.763Z,3.62
2023-05-05T09:36:06.644Z,3.54
2023-05-05T09:37:06.671Z,3.52
2023-05-05T09:38:06.656Z,3.52
2023-05-05T09:39:06.741Z,3.93
2023-05-05T09:40:06.627Z,4.16
2023-05-05T09:41:06.629Z,4.26
2023-05-05T09:42:06.633Z,4.10
2023-05-05T09:43:06.922Z,4.31
2023-05-05T09:44:06.638Z,4.39
2023-05-05T09:45:06.755Z,4.41
2023-05-05T09:46:06.679Z,4.50
2023-05-05T09:47:18.026Z,4.76
2023-05-05T09:48:07.950Z,4.77
2023-05-05T09:49:06.635Z,4.82
2023-05-05T09:50:06.892Z,4.94
2023-05-05T09:51:06.603Z,5.13
2023-05-05T09:52:06.609Z,5.51
2023-05-05T09:53:06.656Z,5.57
2023-05-05T09:54:06.616Z,5.31
2023-05-05T09:55:06.746Z,5.49
2023-05-05T09:56:06.577Z,5.32
2023-05-05T09:57:06.611Z,5.78
2023-05-05T09:58:06.943Z,5.98
2023-05-05T09:59:06.582Z,6.04
2023-05-05T10:00:06.737Z,6.60
2023-05-05T10:01:06.595Z,6.19
2023-05-05T10:02:06.553Z,6.21
2023-05-05T10:03:06.775Z,6.16
2023-05-05T10:04:06.647Z,6.46
2023-05-05T10:05:06.774Z,6.46
2023-05-05T10:06:06.717Z,6.81
2023-05-05T10:07:06.771Z,6.41
2023-05-05T10:08:06.928Z,6.35
2023-05-05T10:09:06.858Z,6.49
2023-05-05T10:10:07.053Z,7.20
2023-05-05T10:11:07.172Z,7.39
2023-05-05T10:12:06.978Z,7.53
2023-05-05T10:13:07.080Z,7.84
2023-05-05T10:14:07.101Z,7.56
2023-05-05T10:15:07.142Z,7.93
2023-05-05T10:16:07.214Z,7.63
2023-05-05T10:17:07.255Z,7.87
2023-05-05T10:18:08.461Z,8.52
2023-05-05T10:19:07.374Z,8.63
2023-05-05T10:20:07.610Z,9.15
2023-05-05T10:21:07.458Z,9.36
2023-05-05T10:22:07.545Z,9.17
2023-05-05T10:23:07.624Z,8.98
2023-05-05T10:24:07.685Z,9.45
2023-05-05T10:25:07.732Z,8.70
2023-05-05T10:26:07.797Z,8.71
2023-05-05T10:27:07.896Z,8.73
2023-05-05T10:28:07.907Z,8.89
2023-05-05T10:29:07.933Z,8.88
2023-05-05T10:30:08.272Z,9.53
2023-05-05T10:31:23.860Z,9.49
2023-05-05T10:32:24.474Z,9.50
2023-05-05T10:34:08.066Z,9.52
2023-05-05T10:35:08.062Z,9.56
2023-05-05T10:36:08.068Z,9.67
2023-05-05T10:37:08.139Z,10.48
2023-05-05T10:38:08.101Z,10.53
2023-05-05T10:39:08.095Z,10.93
2023-05-05T10:40:08.355Z,11.19
2023-05-05T10:41:08.211Z,10.86
2023-05-05T10:42:08.241Z,11.25
2023-05-05T10:43:08.315Z,11.76
2023-05-05T10:44:08.420Z,11.77
2023-05-05T10:45:08.357Z,10.94
2023-05-05T10:46:08.386Z,11.28
2023-05-05T10:47:08.411Z,10.92
2023-05-05T10:48:08.462Z,10.10
2023-05-05T10:49:09.228Z,9.98
2023-05-05T10:50:08.790Z,9.61
2023-05-05T10:51:08.479Z,9.20
2023-05-05T10:52:08.508Z,9.34
2023-05-05T10:53:08.530Z,8.88
2023-05-05T10:54:08.551Z,9.49
2023-05-05T10:55:08.479Z,9.42
2023-05-05T10:56:08.488Z,8.84
2023-05-05T10:57:08.590Z,9.20
2023-05-05T10:58:08.522Z,9.64
2023-05-05T10:59:08.686Z,10.10
2023-05-05T11:00:08.903Z,9.58
2023-05-05T11:01:08.594Z,9.81
2023-05-05T11:02:08.573Z,10.07
2023-05-05T11:03:08.691Z,9.03
2023-05-05T11:04:08.670Z,10.15
2023-05-05T11:05:08.593Z,9.29
2023-05-05T11:06:08.563Z,9.59
2023-05-05T11:07:10.306Z,11.19
2023-05-05T11:08:08.934Z,11.20
2023-05-05T11:09:08.540Z,11.30
2023-05-05T11:10:08.896Z,11.39
2023-05-05T11:11:08.528Z,8.68
2023-05-05T11:12:08.513Z,9.40
2023-05-05T11:13:08.552Z,8.81
2023-05-05T11:14:08.511Z,9.09
2023-05-05T11:15:08.509Z,7.97
2023-05-05T11:16:08.598Z,8.51
2023-05-05T11:17:08.469Z,7.74
2023-05-05T11:18:08.868Z,8.29
2023-05-05T11:19:08.490Z,8.30
2023-05-05T11:20:08.659Z,8.38
2023-05-05T11:21:08.495Z,7.55
2023-05-05T11:22:08.476Z,7.39
2023-05-05T11:23:08.500Z,8.53
2023-05-05T11:24:08.471Z,7.93
2023-05-05T11:25:08.419Z,8.07
2023-05-05T11:26:08.454Z,8.66
2023-05-05T11:27:08.419Z,9.44
2023-05-05T11:28:08.564Z,10.43
2023-05-05T11:29:08.956Z,5.28
2023-05-05T11:30:08.819Z,6.52
2023-05-05T11:31:08.466Z,7.07
2023-05-05T11:32:08.391Z,6.83
2023-05-05T11:33:08.468Z,6.26
2023-05-05T11:34:08.395Z,5.95
2023-05-05T11:35:08.368Z,6.15
2023-05-05T11:36:08.374Z,6.24
2023-05-05T11:37:08.341Z,6.16
2023-05-05T11:38:08.352Z,6.53
2023-05-05T11:39:08.344Z,5.93
2023-05-05T11:40:08.507Z,5.71
2023-05-05T11:41:08.347Z,5.61
2023-05-05T11:42:10.804Z,5.65
2023-05-05T11:43:08.401Z,5.27
2023-05-05T11:44:08.335Z,5.21
2023-05-05T11:45:08.335Z,4.90
2023-05-05T11:46:08.365Z,4.83
2023-05-05T11:47:08.365Z,4.76
2023-05-05T11:48:08.313Z,4.75
2023-05-05T11:49:08.308Z,4.57
2023-05-05T11:50:08.558Z,4.35
2023-05-05T11:51:08.275Z,4.23
2023-05-05T11:52:08.327Z,4.35
2023-05-05T11:53:08.249Z,4.00
2023-05-05T11:54:08.266Z,3.79
2023-05-05T11:55:08.248Z,3.56
2023-05-05T11:56:08.244Z,3.22
2023-05-05T11:57:08.259Z,2.80
2023-05-05T11:58:08.255Z,2.92
2023-05-05T11:59:08.221Z,3.06
2023-05-05T12:00:08.622Z,3.10
2023-05-05T12:01:08.211Z,2.60
2023-05-05T12:02:08.189Z,2.55
2023-05-05T12:03:08.343Z,2.69
2023-05-05T12:04:08.470Z,2.79
2023-05-05T12:05:08.173Z,2.76
2023-05-05T12:06:08.190Z,2.61
2023-05-05T12:07:08.192Z,2.53
2023-05-05T12:08:08.197Z,2.61
2023-05-05T12:09:08.147Z,2.70
2023-05-05T12:10:08.398Z,2.65
2023-05-05T12:11:08.160Z,2.46
2023-05-05T12:12:08.125Z,2.37
2023-05-05T12:13:08.187Z,2.30
2023-05-05T12:14:08.138Z,2.34
2023-05-05T12:15:08.117Z,2.29
2023-05-05T12:16:08.136Z,2.17
2023-05-05T12:17:08.098Z,1.91
2023-05-05T12:18:08.196Z,1.85
2023-05-05T12:19:09.037Z,1.97
2023-05-05T12:20:08.228Z,1.73
2023-05-05T12:21:08.104Z,1.56
2023-05-05T12:22:08.068Z,1.66
2023-05-05T12:23:08.043Z,1.65
2023-05-05T12:24:08.079Z,1.51
2023-05-05T12:25:08.172Z,1.38
2023-05-05T12:26:08.043Z,1.36
2023-05-05T12:27:08.052Z,1.41
2023-05-05T12:28:08.067Z,1.44
2023-05-05T12:29:08.064Z,1.44
2023-05-05T12:30:08.181Z,1.44
2023-05-05T12:31:08.055Z,1.39
2023-05-05T12:32:08.047Z,1.40
2023-05-05T12:33:08.097Z,1.42
2023-05-05T12:34:08.045Z,1.50
2023-05-05T12:35:08.007Z,1.50
2023-05-05T12:36:07.996Z,1.36
2023-05-05T12:37:08.041Z,1.36
2023-05-05T12:38:08.086Z,1.41
2023-05-05T12:39:08.134Z,1.46
2023-05-05T12:40:08.376Z,1.43
2023-05-05T12:41:08.234Z,1.49
2023-05-05T12:42:08.311Z,1.46
2023-05-05T12:43:08.358Z,1.44
2023-05-05T12:44:08.446Z,1.46
2023-05-05T12:45:08.470Z,1.44
2023-05-05T12:46:08.602Z,1.36
2023-05-05T12:47:08.566Z,1.31
2023-05-05T12:48:08.617Z,1.33
2023-05-05T12:49:08.673Z,1.29
2023-05-05T12:50:08.850Z,1.02
2023-05-05T12:51:08.828Z,1.20
2023-05-05T12:52:08.805Z,1.16
2023-05-05T12:53:08.888Z,1.36
2023-05-05T12:54:08.946Z,1.53
2023-05-05T12:55:09.141Z,1.76
2023-05-05T12:56:09.039Z,1.45
2023-05-05T12:57:09.044Z,1.62
2023-05-05T12:58:09.101Z,1.37
2023-05-05T12:59:09.142Z,1.23
2023-05-05T13:00:09.469Z,1.46
2023-05-05T13:01:09.282Z,1.56
2023-05-05T13:02:09.285Z,2.65
2023-05-05T13:03:09.429Z,3.16
2023-05-05T13:04:09.348Z,5.31
2023-05-05T13:05:09.563Z,4.82
2023-05-05T13:06:09.367Z,3.12
2023-05-05T13:07:09.363Z,3.89
2023-05-05T13:08:09.331Z,2.68
2023-05-05T13:09:09.308Z,2.29
2023-05-05T13:10:09.324Z,2.04
2023-05-05T13:11:09.291Z,1.98
2023-05-05T13:12:09.309Z,1.94
2023-05-05T13:13:09.360Z,1.98
2023-05-05T13:14:09.316Z,2.23
2023-05-05T13:15:09.507Z,2.48
2023-05-05T13:16:09.428Z,2.60
2023-05-05T13:17:09.468Z,2.68
2023-05-05T13:18:09.492Z,2.79
2023-05-05T13:19:09.509Z,2.85